sensor_id;sensor_type;location;lat;lon;timestamp;temperature;humidity
53053;DHT22;38934;52.690;6.184;2023-02-28T00:01:30;3.00;99.90
53053;DHT22;38934;52.690;6.184;2023-02-28T00:03:56;3.00;99.90
53053;DHT22;38934;52.690;6.184;2023-02-28T00:06:22;3.00;99.90
53053;DHT22;38934;52.690;6.184;2023-02-28T00:08:48;3.00;99.90
53053;DHT22;38934;52.690;6.184;2023-02-28T00:11:15;3.00;99.90
53053;DHT22;38934;52.690;6.184;2023-02-28T00:13:43;3.00;99.90
53053;DHT22;38934;52.690;6.184;2023-02-28T00:16:19;3.00;99.90
53053;DHT22;38934;52.690;6.184;2023-02-28T00:18:46;3.00;99.90
53053;DHT22;38934;52.690;6.184;2023-02-28T00:21:13;3.00;99.90
53053;DHT22;38934;52.690;6.184;2023-02-28T00:23:38;3.00;99.90
53053;DHT22;38934;52.690;6.184;2023-02-28T00:26:04;3.00;99.90
53053;DHT22;38934;52.690;6.184;2023-02-28T00:28:30;3.00;99.90
53053;DHT22;38934;52.690;6.184;2023-02-28T00:30:56;3.00;99.90
53053;DHT22;38934;52.690;6.184;2023-02-28T00:33:23;3.00;99.90
53053;DHT22;38934;52.690;6.184;2023-02-28T00:35:48;3.60;99.90
53053;DHT22;38934;52.690;6.184;2023-02-28T00:38:15;3.00;99.90
53053;DHT22;38934;52.690;6.184;2023-02-28T00:40:40;3.00;99.90
53053;DHT22;38934;52.690;6.184;2023-02-28T00:43:06;3.00;99.90
53053;DHT22;38934;52.690;6.184;2023-02-28T00:45:32;3.00;99.90
53053;DHT22;38934;52.690;6.184;2023-02-28T00:47:57;3.00;99.90
53053;DHT22;38934;52.690;6.184;2023-02-28T00:50:23;3.10;99.90
53053;DHT22;38934;52.690;6.184;2023-02-28T00:52:48;3.80;99.90
53053;DHT22;38934;52.690;6.184;2023-02-28T00:55:14;3.10;99.90
53053;DHT22;38934;52.690;6.184;2023-02-28T00:57:40;3.10;99.90
53053;DHT22;38934;52.690;6.184;2023-02-28T01:00:06;3.10;99.90
53053;DHT22;38934;52.690;6.184;2023-02-28T01:02:32;3.10;99.90
53053;DHT22;38934;52.690;6.184;2023-02-28T01:04:58;3.10;99.90
53053;DHT22;38934;52.690;6.184;2023-02-28T01:07:23;3.10;99.90
53053;DHT22;38934;52.690;6.184;2023-02-28T01:09:49;3.10;99.90
53053;DHT22;38934;52.690;6.184;2023-02-28T01:12:15;3.10;99.90
53053;DHT22;38934;52.690;6.184;2023-02-28T01:14:41;3.10;99.90
53053;DHT22;38934;52.690;6.184;2023-02-28T01:17:06;3.10;99.90
53053;DHT22;38934;52.690;6.184;2023-02-28T01:19:32;3.20;99.90
53053;DHT22;38934;52.690;6.184;2023-02-28T01:22:04;3.10;99.90
53053;DHT22;38934;52.690;6.184;2023-02-28T01:24:30;3.10;99.90
53053;DHT22;38934;52.690;6.184;2023-02-28T01:26:56;3.20;99.90
53053;DHT22;38934;52.690;6.184;2023-02-28T01:29:22;3.20;99.90
53053;DHT22;38934;52.690;6.184;2023-02-28T01:31:47;3.20;99.90
53053;DHT22;38934;52.690;6.184;2023-02-28T01:34:13;3.20;99.90
53053;DHT22;38934;52.690;6.184;2023-02-28T01:36:38;3.20;99.90
53053;DHT22;38934;52.690;6.184;2023-02-28T01:39:04;3.20;99.90
53053;DHT22;38934;52.690;6.184;2023-02-28T01:41:32;3.20;99.90
53053;DHT22;38934;52.690;6.184;2023-02-28T01:44:07;3.20;99.90
53053;DHT22;38934;52.690;6.184;2023-02-28T01:46:51;3.30;99.90
53053;DHT22;38934;52.690;6.184;2023-02-28T01:49:18;3.30;99.90
53053;DHT22;38934;52.690;6.184;2023-02-28T01:51:46;4.40;99.90
53053;DHT22;38934;52.690;6.184;2023-02-28T01:54:36;3.20;99.90
53053;DHT22;38934;52.690;6.184;2023-02-28T01:57:06;3.20;99.90
53053;DHT22;38934;52.690;6.184;2023-02-28T02:04:37;3.20;99.90
53053;DHT22;38934;52.690;6.184;2023-02-28T02:07:03;3.20;99.90
53053;DHT22;38934;52.690;6.184;2023-02-28T02:09:29;3.20;99.90
53053;DHT22;38934;52.690;6.184;2023-02-28T02:11:55;3.20;99.90
53053;DHT22;38934;52.690;6.184;2023-02-28T02:14:37;3.20;99.90
53053;DHT22;38934;52.690;6.184;2023-02-28T02:17:32;3.20;99.90
53053;DHT22;38934;52.690;6.184;2023-02-28T02:31:50;3.20;99.90
53053;DHT22;38934;52.690;6.184;2023-02-28T02:34:38;3.10;99.90
53053;DHT22;38934;52.690;6.184;2023-02-28T02:45:17;3.10;99.90
53053;DHT22;38934;52.690;6.184;2023-02-28T02:47:45;3.10;99.90
53053;DHT22;38934;52.690;6.184;2023-02-28T02:50:22;3.90;99.90
53053;DHT22;38934;52.690;6.184;2023-02-28T02:52:52;3.10;99.90
53053;DHT22;38934;52.690;6.184;2023-02-28T02:55:20;3.10;99.90
53053;DHT22;38934;52.690;6.184;2023-02-28T02:57:48;3.10;99.90
53053;DHT22;38934;52.690;6.184;2023-02-28T03:00:18;3.10;99.90
53053;DHT22;38934;52.690;6.184;2023-02-28T03:02:46;3.10;99.90
53053;DHT22;38934;52.690;6.184;2023-02-28T03:05:19;3.00;99.90
53053;DHT22;38934;52.690;6.184;2023-02-28T03:07:45;3.00;99.90
53053;DHT22;38934;52.690;6.184;2023-02-28T03:10:32;3.00;99.90
53053;DHT22;38934;52.690;6.184;2023-02-28T03:15:55;2.90;99.90
53053;DHT22;38934;52.690;6.184;2023-02-28T03:24:07;2.90;99.90
53053;DHT22;38934;52.690;6.184;2023-02-28T03:26:39;2.90;99.90
53053;DHT22;38934;52.690;6.184;2023-02-28T03:29:54;3.60;99.90
53053;DHT22;38934;52.690;6.184;2023-02-28T03:32:04;2.80;99.90
53053;DHT22;38934;52.690;6.184;2023-02-28T03:34:38;2.80;99.90
53053;DHT22;38934;52.690;6.184;2023-02-28T03:37:09;2.80;99.90
53053;DHT22;38934;52.690;6.184;2023-02-28T03:39:42;2.80;99.90
53053;DHT22;38934;52.690;6.184;2023-02-28T03:42:11;3.70;99.90
53053;DHT22;38934;52.690;6.184;2023-02-28T03:44:52;2.70;99.90
53053;DHT22;38934;52.690;6.184;2023-02-28T03:47:27;3.00;99.90
53053;DHT22;38934;52.690;6.184;2023-02-28T03:52:31;2.70;99.90
53053;DHT22;38934;52.690;6.184;2023-02-28T03:55:05;2.70;99.90
53053;DHT22;38934;52.690;6.184;2023-02-28T03:57:58;2.70;99.90
53053;DHT22;38934;52.690;6.184;2023-02-28T04:00:34;2.70;99.90
53053;DHT22;38934;52.690;6.184;2023-02-28T04:03:01;2.70;99.90
53053;DHT22;38934;52.690;6.184;2023-02-28T04:05:27;2.70;99.90
53053;DHT22;38934;52.690;6.184;2023-02-28T04:07:53;2.70;99.90
53053;DHT22;38934;52.690;6.184;2023-02-28T04:10:19;2.70;99.90
53053;DHT22;38934;52.690;6.184;2023-02-28T04:12:45;3.30;99.90
53053;DHT22;38934;52.690;6.184;2023-02-28T04:15:10;2.70;99.90
53053;DHT22;38934;52.690;6.184;2023-02-28T04:17:37;2.60;99.90
53053;DHT22;38934;52.690;6.184;2023-02-28T04:20:03;2.60;99.90
53053;DHT22;38934;52.690;6.184;2023-02-28T04:22:34;2.70;99.90
53053;DHT22;38934;52.690;6.184;2023-02-28T04:25:00;2.70;99.90
53053;DHT22;38934;52.690;6.184;2023-02-28T04:27:25;2.70;99.90
53053;DHT22;38934;52.690;6.184;2023-02-28T04:29:51;2.60;99.90
53053;DHT22;38934;52.690;6.184;2023-02-28T04:32:16;3.40;99.90
53053;DHT22;38934;52.690;6.184;2023-02-28T04:34:42;3.50;99.90
53053;DHT22;38934;52.690;6.184;2023-02-28T04:37:08;2.60;99.90
53053;DHT22;38934;52.690;6.184;2023-02-28T04:39:35;2.70;99.90
53053;DHT22;38934;52.690;6.184;2023-02-28T04:42:01;2.70;99.90
53053;DHT22;38934;52.690;6.184;2023-02-28T04:44:27;3.70;99.90
53053;DHT22;38934;52.690;6.184;2023-02-28T04:46:53;2.70;99.90
53053;DHT22;38934;52.690;6.184;2023-02-28T04:49:18;3.20;99.90
53053;DHT22;38934;52.690;6.184;2023-02-28T04:51:44;2.60;99.90
53053;DHT22;38934;52.690;6.184;2023-02-28T04:54:10;2.60;99.90
53053;DHT22;38934;52.690;6.184;2023-02-28T04:56:35;2.60;99.90
53053;DHT22;38934;52.690;6.184;2023-02-28T04:59:01;2.50;99.90
53053;DHT22;38934;52.690;6.184;2023-02-28T05:01:32;3.40;99.90
53053;DHT22;38934;52.690;6.184;2023-02-28T05:03:59;2.60;99.90
53053;DHT22;38934;52.690;6.184;2023-02-28T05:06:27;2.50;99.90
53053;DHT22;38934;52.690;6.184;2023-02-28T05:08:53;2.60;99.90
53053;DHT22;38934;52.690;6.184;2023-02-28T05:11:26;2.50;99.90
53053;DHT22;38934;52.690;6.184;2023-02-28T05:13:52;2.50;99.90
53053;DHT22;38934;52.690;6.184;2023-02-28T05:16:19;2.50;99.90
53053;DHT22;38934;52.690;6.184;2023-02-28T05:18:45;2.50;99.90
53053;DHT22;38934;52.690;6.184;2023-02-28T05:21:28;2.60;99.90
53053;DHT22;38934;52.690;6.184;2023-02-28T05:23:55;2.50;99.90
53053;DHT22;38934;52.690;6.184;2023-02-28T05:26:21;3.20;99.90
53053;DHT22;38934;52.690;6.184;2023-02-28T05:28:47;2.50;99.90
53053;DHT22;38934;52.690;6.184;2023-02-28T05:31:13;2.90;99.90
53053;DHT22;38934;52.690;6.184;2023-02-28T05:33:39;2.50;99.90
53053;DHT22;38934;52.690;6.184;2023-02-28T05:36:05;2.50;99.90
53053;DHT22;38934;52.690;6.184;2023-02-28T05:38:34;2.50;99.90
53053;DHT22;38934;52.690;6.184;2023-02-28T05:41:06;2.50;99.90
53053;DHT22;38934;52.690;6.184;2023-02-28T05:43:32;2.50;99.90
53053;DHT22;38934;52.690;6.184;2023-02-28T05:45:58;2.50;99.90
53053;DHT22;38934;52.690;6.184;2023-02-28T05:48:40;2.50;99.90
53053;DHT22;38934;52.690;6.184;2023-02-28T05:51:07;2.50;99.90
53053;DHT22;38934;52.690;6.184;2023-02-28T05:53:34;2.50;99.90
53053;DHT22;38934;52.690;6.184;2023-02-28T05:56:00;2.50;99.90
53053;DHT22;38934;52.690;6.184;2023-02-28T05:58:26;2.40;99.90
53053;DHT22;38934;52.690;6.184;2023-02-28T06:00:56;2.40;99.90
53053;DHT22;38934;52.690;6.184;2023-02-28T06:03:22;2.30;99.90
53053;DHT22;38934;52.690;6.184;2023-02-28T06:05:47;2.30;99.90
53053;DHT22;38934;52.690;6.184;2023-02-28T06:08:13;2.30;99.90
53053;DHT22;38934;52.690;6.184;2023-02-28T06:10:39;2.30;99.90
53053;DHT22;38934;52.690;6.184;2023-02-28T06:13:05;3.00;99.90
53053;DHT22;38934;52.690;6.184;2023-02-28T06:15:30;2.20;99.90
53053;DHT22;38934;52.690;6.184;2023-02-28T06:17:57;2.30;99.90
53053;DHT22;38934;52.690;6.184;2023-02-28T06:20:24;2.30;99.90
53053;DHT22;38934;52.690;6.184;2023-02-28T06:22:49;2.20;99.90
53053;DHT22;38934;52.690;6.184;2023-02-28T06:25:19;2.20;99.90
53053;DHT22;38934;52.690;6.184;2023-02-28T06:27:45;2.20;99.90
53053;DHT22;38934;52.690;6.184;2023-02-28T06:30:11;2.20;99.90
53053;DHT22;38934;52.690;6.184;2023-02-28T06:32:37;2.20;99.90
53053;DHT22;38934;52.690;6.184;2023-02-28T06:35:03;2.20;99.90
53053;DHT22;38934;52.690;6.184;2023-02-28T06:37:31;2.20;99.90
53053;DHT22;38934;52.690;6.184;2023-02-28T06:39:56;2.20;99.90
53053;DHT22;38934;52.690;6.184;2023-02-28T06:42:23;2.20;99.90
53053;DHT22;38934;52.690;6.184;2023-02-28T06:44:57;2.10;99.90
53053;DHT22;38934;52.690;6.184;2023-02-28T06:47:23;2.10;99.90
53053;DHT22;38934;52.690;6.184;2023-02-28T06:49:49;2.10;99.90
53053;DHT22;38934;52.690;6.184;2023-02-28T06:52:14;2.10;99.90
53053;DHT22;38934;52.690;6.184;2023-02-28T06:54:40;2.40;99.90
53053;DHT22;38934;52.690;6.184;2023-02-28T06:57:06;2.10;99.90
53053;DHT22;38934;52.690;6.184;2023-02-28T06:59:32;2.10;99.90
53053;DHT22;38934;52.690;6.184;2023-02-28T07:01:58;2.10;99.90
53053;DHT22;38934;52.690;6.184;2023-02-28T07:04:24;2.10;99.90
53053;DHT22;38934;52.690;6.184;2023-02-28T07:06:49;2.10;99.90
53053;DHT22;38934;52.690;6.184;2023-02-28T07:09:15;2.10;99.90
53053;DHT22;38934;52.690;6.184;2023-02-28T07:11:41;2.20;99.90
53053;DHT22;38934;52.690;6.184;2023-02-28T07:14:08;2.20;99.90
53053;DHT22;38934;52.690;6.184;2023-02-28T07:16:33;2.20;99.90
53053;DHT22;38934;52.690;6.184;2023-02-28T07:18:59;2.20;99.90
53053;DHT22;38934;52.690;6.184;2023-02-28T07:21:25;2.20;99.90
53053;DHT22;38934;52.690;6.184;2023-02-28T07:23:50;2.20;99.90
53053;DHT22;38934;52.690;6.184;2023-02-28T07:26:19;2.20;99.90
53053;DHT22;38934;52.690;6.184;2023-02-28T07:28:47;2.20;99.90
53053;DHT22;38934;52.690;6.184;2023-02-28T07:31:14;2.20;99.90
53053;DHT22;38934;52.690;6.184;2023-02-28T07:33:40;2.30;99.90
53053;DHT22;38934;52.690;6.184;2023-02-28T07:36:11;2.30;99.90
53053;DHT22;38934;52.690;6.184;2023-02-28T07:38:45;2.30;99.90
53053;DHT22;38934;52.690;6.184;2023-02-28T07:41:12;2.30;99.90
53053;DHT22;38934;52.690;6.184;2023-02-28T07:43:37;2.30;99.90
53053;DHT22;38934;52.690;6.184;2023-02-28T07:46:08;2.40;99.90
53053;DHT22;38934;52.690;6.184;2023-02-28T07:48:35;2.40;99.90
53053;DHT22;38934;52.690;6.184;2023-02-28T07:51:00;2.40;99.90
53053;DHT22;38934;52.690;6.184;2023-02-28T07:53:27;3.30;99.90
53053;DHT22;38934;52.690;6.184;2023-02-28T07:56:00;2.50;99.90
53053;DHT22;38934;52.690;6.184;2023-02-28T07:58:27;2.50;99.90
53053;DHT22;38934;52.690;6.184;2023-02-28T08:00:53;2.50;99.90
53053;DHT22;38934;52.690;6.184;2023-02-28T08:03:20;3.20;99.90
53053;DHT22;38934;52.690;6.184;2023-02-28T08:05:46;2.50;99.90
53053;DHT22;38934;52.690;6.184;2023-02-28T08:08:13;2.50;99.90
53053;DHT22;38934;52.690;6.184;2023-02-28T08:10:39;2.50;99.90
53053;DHT22;38934;52.690;6.184;2023-02-28T08:13:05;2.80;99.90
53053;DHT22;38934;52.690;6.184;2023-02-28T08:15:31;2.70;99.90
53053;DHT22;38934;52.690;6.184;2023-02-28T08:17:56;2.60;99.90
53053;DHT22;38934;52.690;6.184;2023-02-28T08:20:24;2.80;99.90
53053;DHT22;38934;52.690;6.184;2023-02-28T08:22:49;2.70;99.90
53053;DHT22;38934;52.690;6.184;2023-02-28T08:25:15;2.70;99.90
53053;DHT22;38934;52.690;6.184;2023-02-28T08:27:41;2.70;99.90
53053;DHT22;38934;52.690;6.184;2023-02-28T08:30:09;2.70;99.90
53053;DHT22;38934;52.690;6.184;2023-02-28T08:32:35;2.70;99.90
53053;DHT22;38934;52.690;6.184;2023-02-28T08:35:01;2.70;99.90
53053;DHT22;38934;52.690;6.184;2023-02-28T08:37:28;2.80;99.90
53053;DHT22;38934;52.690;6.184;2023-02-28T08:39:53;2.90;99.90
53053;DHT22;38934;52.690;6.184;2023-02-28T08:42:19;3.00;99.90
53053;DHT22;38934;52.690;6.184;2023-02-28T08:44:45;3.10;99.90
53053;DHT22;38934;52.690;6.184;2023-02-28T08:47:11;3.20;99.90
53053;DHT22;38934;52.690;6.184;2023-02-28T08:49:37;3.40;99.90
53053;DHT22;38934;52.690;6.184;2023-02-28T08:52:03;3.60;99.90
53053;DHT22;38934;52.690;6.184;2023-02-28T08:54:28;3.90;99.90
53053;DHT22;38934;52.690;6.184;2023-02-28T08:56:56;4.00;99.90
53053;DHT22;38934;52.690;6.184;2023-02-28T08:59:22;4.10;99.90
53053;DHT22;38934;52.690;6.184;2023-02-28T09:01:48;4.20;99.90
53053;DHT22;38934;52.690;6.184;2023-02-28T09:04:14;4.10;99.90
53053;DHT22;38934;52.690;6.184;2023-02-28T09:06:39;4.00;99.90
53053;DHT22;38934;52.690;6.184;2023-02-28T09:09:05;3.90;99.90
53053;DHT22;38934;52.690;6.184;2023-02-28T09:11:33;4.20;99.90
53053;DHT22;38934;52.690;6.184;2023-02-28T09:13:59;3.70;99.90
53053;DHT22;38934;52.690;6.184;2023-02-28T09:16:26;3.70;99.90
53053;DHT22;38934;52.690;6.184;2023-02-28T09:18:51;3.70;99.90
53053;DHT22;38934;52.690;6.184;2023-02-28T09:21:18;3.80;99.90
53053;DHT22;38934;52.690;6.184;2023-02-28T09:23:46;3.80;99.90
53053;DHT22;38934;52.690;6.184;2023-02-28T09:26:17;3.90;99.90
53053;DHT22;38934;52.690;6.184;2023-02-28T09:28:43;4.00;99.90
53053;DHT22;38934;52.690;6.184;2023-02-28T09:31:20;4.10;99.90
53053;DHT22;38934;52.690;6.184;2023-02-28T09:33:51;4.20;99.90
53053;DHT22;38934;52.690;6.184;2023-02-28T09:36:17;4.40;99.90
53053;DHT22;38934;52.690;6.184;2023-02-28T09:38:43;4.50;99.90
53053;DHT22;38934;52.690;6.184;2023-02-28T09:41:21;4.50;99.90
53053;DHT22;38934;52.690;6.184;2023-02-28T09:43:53;4.60;99.90
53053;DHT22;38934;52.690;6.184;2023-02-28T09:46:31;4.60;99.90
53053;DHT22;38934;52.690;6.184;2023-02-28T09:49:02;4.80;99.90
53053;DHT22;38934;52.690;6.184;2023-02-28T09:51:43;4.80;99.90
53053;DHT22;38934;52.690;6.184;2023-02-28T09:54:15;4.90;99.90
53053;DHT22;38934;52.690;6.184;2023-02-28T09:56:50;5.00;99.90
53053;DHT22;38934;52.690;6.184;2023-02-28T10:05:07;5.20;99.90
53053;DHT22;38934;52.690;6.184;2023-02-28T10:10:39;5.00;99.90
53053;DHT22;38934;52.690;6.184;2023-02-28T10:13:14;5.00;99.90
53053;DHT22;38934;52.690;6.184;2023-02-28T10:15:42;5.00;99.90
53053;DHT22;38934;52.690;6.184;2023-02-28T10:18:16;5.00;99.90
53053;DHT22;38934;52.690;6.184;2023-02-28T10:20:45;6.20;99.90
53053;DHT22;38934;52.690;6.184;2023-02-28T10:23:19;5.10;99.90
53053;DHT22;38934;52.690;6.184;2023-02-28T10:25:53;5.00;99.90
53053;DHT22;38934;52.690;6.184;2023-02-28T10:28:19;6.00;99.90
53053;DHT22;38934;52.690;6.184;2023-02-28T10:30:50;5.80;99.90
53053;DHT22;38934;52.690;6.184;2023-02-28T10:33:31;6.20;99.90
53053;DHT22;38934;52.690;6.184;2023-02-28T10:36:00;4.80;99.90
53053;DHT22;38934;52.690;6.184;2023-02-28T10:38:34;5.80;99.90
53053;DHT22;38934;52.690;6.184;2023-02-28T10:43:30;4.90;99.90
53053;DHT22;38934;52.690;6.184;2023-02-28T10:46:02;5.70;99.90
53053;DHT22;38934;52.690;6.184;2023-02-28T10:48:38;4.80;99.90
53053;DHT22;38934;52.690;6.184;2023-02-28T10:51:08;4.90;99.90
53053;DHT22;38934;52.690;6.184;2023-02-28T10:53:37;5.80;99.90
53053;DHT22;38934;52.690;6.184;2023-02-28T11:01:38;4.80;99.90
53053;DHT22;38934;52.690;6.184;2023-02-28T11:06:42;4.70;99.90
53053;DHT22;38934;52.690;6.184;2023-02-28T11:09:38;4.70;99.90
53053;DHT22;38934;52.690;6.184;2023-02-28T11:12:28;4.80;99.90
53053;DHT22;38934;52.690;6.184;2023-02-28T11:14:57;4.80;99.90
53053;DHT22;38934;52.690;6.184;2023-02-28T11:17:26;4.80;99.90
53053;DHT22;38934;52.690;6.184;2023-02-28T11:20:05;4.90;99.90
53053;DHT22;38934;52.690;6.184;2023-02-28T11:22:38;4.90;99.90
53053;DHT22;38934;52.690;6.184;2023-02-28T11:25:37;4.90;99.90
53053;DHT22;38934;52.690;6.184;2023-02-28T11:28:03;4.90;99.90
53053;DHT22;38934;52.690;6.184;2023-02-28T11:30:38;4.90;99.90
53053;DHT22;38934;52.690;6.184;2023-02-28T11:33:29;4.90;99.90
53053;DHT22;38934;52.690;6.184;2023-02-28T11:36:03;4.90;99.90
53053;DHT22;38934;52.690;6.184;2023-02-28T11:38:31;4.90;99.90
53053;DHT22;38934;52.690;6.184;2023-02-28T11:41:22;5.60;99.90
53053;DHT22;38934;52.690;6.184;2023-02-28T11:46:44;4.90;99.90
53053;DHT22;38934;52.690;6.184;2023-02-28T11:49:17;4.90;99.90
53053;DHT22;38934;52.690;6.184;2023-02-28T11:51:55;4.90;99.90
53053;DHT22;38934;52.690;6.184;2023-02-28T12:00:03;5.10;99.90
53053;DHT22;38934;52.690;6.184;2023-02-28T12:02:49;5.90;99.90
53053;DHT22;38934;52.690;6.184;2023-02-28T12:05:54;5.80;99.90
53053;DHT22;38934;52.690;6.184;2023-02-28T12:08:33;5.20;99.90
53053;DHT22;38934;52.690;6.184;2023-02-28T12:20:02;5.30;99.90
53053;DHT22;38934;52.690;6.184;2023-02-28T12:22:36;5.30;99.90
53053;DHT22;38934;52.690;6.184;2023-02-28T12:27:35;5.40;99.90
53053;DHT22;38934;52.690;6.184;2023-02-28T12:30:08;5.50;99.90
53053;DHT22;38934;52.690;6.184;2023-02-28T12:32:41;5.60;99.90
53053;DHT22;38934;52.690;6.184;2023-02-28T12:35:14;5.60;99.90
53053;DHT22;38934;52.690;6.184;2023-02-28T12:37:46;5.60;99.90
53053;DHT22;38934;52.690;6.184;2023-02-28T12:40:21;5.70;99.90
53053;DHT22;38934;52.690;6.184;2023-02-28T12:42:54;5.70;99.90
53053;DHT22;38934;52.690;6.184;2023-02-28T12:45:31;5.80;99.90
53053;DHT22;38934;52.690;6.184;2023-02-28T12:48:07;5.70;99.90
53053;DHT22;38934;52.690;6.184;2023-02-28T12:50:34;5.70;99.90
53053;DHT22;38934;52.690;6.184;2023-02-28T12:53:25;5.70;99.90
53053;DHT22;38934;52.690;6.184;2023-02-28T12:56:07;5.80;99.90
53053;DHT22;38934;52.690;6.184;2023-02-28T12:58:47;5.80;99.90
53053;DHT22;38934;52.690;6.184;2023-02-28T13:09:55;5.80;99.90
53053;DHT22;38934;52.690;6.184;2023-02-28T13:12:21;5.80;99.90
53053;DHT22;38934;52.690;6.184;2023-02-28T13:14:49;5.80;99.90
53053;DHT22;38934;52.690;6.184;2023-02-28T13:17:20;5.90;99.90
53053;DHT22;38934;52.690;6.184;2023-02-28T13:19:59;5.90;99.90
53053;DHT22;38934;52.690;6.184;2023-02-28T13:24:52;6.00;99.90
53053;DHT22;38934;52.690;6.184;2023-02-28T13:29:50;6.00;99.90
53053;DHT22;38934;52.690;6.184;2023-02-28T13:37:31;6.00;99.90
53053;DHT22;38934;52.690;6.184;2023-02-28T13:42:47;6.00;99.90
53053;DHT22;38934;52.690;6.184;2023-02-28T13:45:22;6.00;99.90
53053;DHT22;38934;52.690;6.184;2023-02-28T13:47:56;6.00;99.90
53053;DHT22;38934;52.690;6.184;2023-02-28T13:56:22;6.00;99.90
53053;DHT22;38934;52.690;6.184;2023-02-28T14:02:03;6.00;99.90
53053;DHT22;38934;52.690;6.184;2023-02-28T14:04:48;6.10;99.90
53053;DHT22;38934;52.690;6.184;2023-02-28T14:07:20;6.10;99.90
53053;DHT22;38934;52.690;6.184;2023-02-28T14:09:52;6.10;99.90
53053;DHT22;38934;52.690;6.184;2023-02-28T14:15:35;6.10;99.90
53053;DHT22;38934;52.690;6.184;2023-02-28T14:18:28;6.20;99.90
53053;DHT22;38934;52.690;6.184;2023-02-28T14:20:56;6.20;99.90
53053;DHT22;38934;52.690;6.184;2023-02-28T14:26:33;6.10;99.90
53053;DHT22;38934;52.690;6.184;2023-02-28T14:31:45;6.20;99.90
53053;DHT22;38934;52.690;6.184;2023-02-28T14:36:58;6.30;99.90
53053;DHT22;38934;52.690;6.184;2023-02-28T14:39:26;6.30;99.90
53053;DHT22;38934;52.690;6.184;2023-02-28T14:41:53;6.30;99.90
53053;DHT22;38934;52.690;6.184;2023-02-28T14:44:23;6.30;99.90
53053;DHT22;38934;52.690;6.184;2023-02-28T14:46:53;6.30;99.90
53053;DHT22;38934;52.690;6.184;2023-02-28T14:51:49;6.30;99.90
53053;DHT22;38934;52.690;6.184;2023-02-28T14:54:16;6.30;99.90
53053;DHT22;38934;52.690;6.184;2023-02-28T14:56:43;6.30;99.90
53053;DHT22;38934;52.690;6.184;2023-02-28T15:01:48;7.10;99.90
53053;DHT22;38934;52.690;6.184;2023-02-28T15:04:22;6.40;99.90
53053;DHT22;38934;52.690;6.184;2023-02-28T15:07:14;6.40;99.90
53053;DHT22;38934;52.690;6.184;2023-02-28T15:09:40;6.50;99.90
53053;DHT22;38934;52.690;6.184;2023-02-28T15:12:06;6.50;99.90
53053;DHT22;38934;52.690;6.184;2023-02-28T15:14:32;6.50;99.90
53053;DHT22;38934;52.690;6.184;2023-02-28T15:17:06;6.50;99.90
53053;DHT22;38934;52.690;6.184;2023-02-28T15:19:36;6.50;99.90
53053;DHT22;38934;52.690;6.184;2023-02-28T15:22:07;6.50;99.90
53053;DHT22;38934;52.690;6.184;2023-02-28T15:24:41;6.50;99.90
53053;DHT22;38934;52.690;6.184;2023-02-28T15:27:25;6.50;99.90
53053;DHT22;38934;52.690;6.184;2023-02-28T15:30:07;6.40;99.90
53053;DHT22;38934;52.690;6.184;2023-02-28T15:32:38;6.40;99.90
53053;DHT22;38934;52.690;6.184;2023-02-28T15:38:03;6.80;99.90
53053;DHT22;38934;52.690;6.184;2023-02-28T15:40:40;6.90;99.90
53053;DHT22;38934;52.690;6.184;2023-02-28T15:43:13;6.30;99.90
53053;DHT22;38934;52.690;6.184;2023-02-28T15:45:44;6.30;99.90
53053;DHT22;38934;52.690;6.184;2023-02-28T15:48:21;6.30;99.90
53053;DHT22;38934;52.690;6.184;2023-02-28T15:50:56;6.20;99.90
53053;DHT22;38934;52.690;6.184;2023-02-28T15:53:25;6.20;99.90
53053;DHT22;38934;52.690;6.184;2023-02-28T15:55:56;6.20;99.90
53053;DHT22;38934;52.690;6.184;2023-02-28T15:58:24;6.20;99.90
53053;DHT22;38934;52.690;6.184;2023-02-28T16:03:50;6.20;99.90
53053;DHT22;38934;52.690;6.184;2023-02-28T16:08:52;6.10;99.90
53053;DHT22;38934;52.690;6.184;2023-02-28T16:11:20;6.10;99.90
53053;DHT22;38934;52.690;6.184;2023-02-28T16:13:46;6.10;99.90
53053;DHT22;38934;52.690;6.184;2023-02-28T16:16:19;6.00;99.90
53053;DHT22;38934;52.690;6.184;2023-02-28T16:18:45;6.00;99.90
53053;DHT22;38934;52.690;6.184;2023-02-28T16:21:17;6.00;99.90
53053;DHT22;38934;52.690;6.184;2023-02-28T16:23:43;6.00;99.90
53053;DHT22;38934;52.690;6.184;2023-02-28T16:26:23;5.90;99.90
53053;DHT22;38934;52.690;6.184;2023-02-28T16:28:49;5.90;99.90
53053;DHT22;38934;52.690;6.184;2023-02-28T16:31:16;5.80;99.90
53053;DHT22;38934;52.690;6.184;2023-02-28T16:33:43;5.80;99.90
53053;DHT22;38934;52.690;6.184;2023-02-28T16:36:14;5.80;99.90
53053;DHT22;38934;52.690;6.184;2023-02-28T16:38:40;5.70;99.90
53053;DHT22;38934;52.690;6.184;2023-02-28T16:41:05;5.60;99.90
53053;DHT22;38934;52.690;6.184;2023-02-28T16:43:31;6.40;99.90
53053;DHT22;38934;52.690;6.184;2023-02-28T16:45:58;5.50;99.90
53053;DHT22;38934;52.690;6.184;2023-02-28T16:48:24;5.40;99.90
53053;DHT22;38934;52.690;6.184;2023-02-28T16:50:50;5.40;99.90
53053;DHT22;38934;52.690;6.184;2023-02-28T16:53:16;5.30;99.90
53053;DHT22;38934;52.690;6.184;2023-02-28T16:55:41;5.20;99.90
53053;DHT22;38934;52.690;6.184;2023-02-28T16:58:13;5.20;99.90
53053;DHT22;38934;52.690;6.184;2023-02-28T17:00:40;5.20;99.90
53053;DHT22;38934;52.690;6.184;2023-02-28T17:03:14;5.10;99.90
53053;DHT22;38934;52.690;6.184;2023-02-28T17:05:44;5.00;99.90
53053;DHT22;38934;52.690;6.184;2023-02-28T17:08:11;4.90;99.90
53053;DHT22;38934;52.690;6.184;2023-02-28T17:10:36;4.80;99.90
53053;DHT22;38934;52.690;6.184;2023-02-28T17:13:02;4.80;99.90
53053;DHT22;38934;52.690;6.184;2023-02-28T17:15:27;4.70;99.90
53053;DHT22;38934;52.690;6.184;2023-02-28T17:17:53;4.60;99.90
53053;DHT22;38934;52.690;6.184;2023-02-28T17:20:21;4.40;99.90
53053;DHT22;38934;52.690;6.184;2023-02-28T17:22:52;4.40;99.90
53053;DHT22;38934;52.690;6.184;2023-02-28T17:25:19;4.30;99.90
53053;DHT22;38934;52.690;6.184;2023-02-28T17:27:44;4.20;99.90
53053;DHT22;38934;52.690;6.184;2023-02-28T17:30:19;4.20;99.90
53053;DHT22;38934;52.690;6.184;2023-02-28T17:32:45;4.10;99.90
53053;DHT22;38934;52.690;6.184;2023-02-28T17:35:11;4.00;99.90
53053;DHT22;38934;52.690;6.184;2023-02-28T17:37:37;3.90;99.90
53053;DHT22;38934;52.690;6.184;2023-02-28T17:40:04;3.80;99.90
53053;DHT22;38934;52.690;6.184;2023-02-28T17:42:30;3.70;99.90
53053;DHT22;38934;52.690;6.184;2023-02-28T17:44:55;3.60;99.90
53053;DHT22;38934;52.690;6.184;2023-02-28T17:47:21;3.50;99.90
53053;DHT22;38934;52.690;6.184;2023-02-28T17:49:47;3.50;99.90
53053;DHT22;38934;52.690;6.184;2023-02-28T17:52:13;3.50;99.90
53053;DHT22;38934;52.690;6.184;2023-02-28T17:54:38;3.30;99.90
53053;DHT22;38934;52.690;6.184;2023-02-28T17:57:04;3.20;99.90
53053;DHT22;38934;52.690;6.184;2023-02-28T17:59:29;3.10;99.90
